createdAt,value
2023-05-06T00:00:28.272Z,95551.72
2023-05-06T00:03:13.483Z,95550.77
2023-05-06T00:05:42.713Z,95543.67
2023-05-06T00:08:10.623Z,95547.92
2023-05-06T00:10:38.556Z,95540.87
2023-05-06T00:13:06.595Z,95539.77
2023-05-06T00:15:35.334Z,95541.95
2023-05-06T00:18:03.687Z,95542.33
2023-05-06T00:20:32.301Z,95546.06
2023-05-06T00:23:00.282Z,95542.80
2023-05-06T00:25:28.254Z,95542.70
2023-05-06T00:27:56.307Z,95549.13
2023-05-06T00:30:25.706Z,95546.95
2023-05-06T00:32:56.140Z,95549.02
2023-05-06T00:35:24.450Z,95545.27
2023-05-06T00:38:13.120Z,95549.91
2023-05-06T00:40:41.205Z,95546.76
2023-05-06T00:43:09.586Z,95548.22
2023-05-06T00:45:38.438Z,95549.33
2023-05-06T00:48:07.233Z,95548.29
2023-05-06T00:50:35.907Z,95546.15
2023-05-06T00:53:04.436Z,95546.39
2023-05-06T00:55:32.613Z,95545.61
2023-05-06T00:58:01.246Z,95544.09
2023-05-06T01:00:29.234Z,95546.06
2023-05-06T01:02:57.822Z,95545.58
2023-05-06T01:05:27.328Z,95546.34
2023-05-06T01:07:58.233Z,95545.02
2023-05-06T01:10:35.949Z,95544.98
2023-05-06T01:13:03.873Z,95548.13
2023-05-06T01:15:31.810Z,95549.77
2023-05-06T01:18:01.107Z,95549.39
2023-05-06T01:20:30.965Z,95553.14
2023-05-06T01:22:59.629Z,95552.70
2023-05-06T01:25:27.614Z,95549.32
2023-05-06T01:27:55.874Z,95548.47
2023-05-06T01:30:28.372Z,95548.40
2023-05-06T01:33:01.084Z,95547.95
2023-05-06T01:35:49.458Z,95555.21
2023-05-06T01:38:22.945Z,95552.92
2023-05-06T01:40:54.492Z,95553.60
2023-05-06T01:43:24.654Z,95552.88
2023-05-06T01:45:54.265Z,95552.09
2023-05-06T01:48:26.649Z,95547.23
2023-05-06T01:50:55.945Z,95542.60
2023-05-06T01:53:24.124Z,95549.70
2023-05-06T01:55:52.058Z,95547.15
2023-05-06T01:58:20.037Z,95549.18
2023-05-06T02:00:48.159Z,95545.64
2023-05-06T02:03:16.908Z,95545.09
2023-05-06T02:05:45.155Z,95549.34
2023-05-06T02:08:13.177Z,95543.25
2023-05-06T02:10:41.235Z,95544.73
2023-05-06T02:13:11.739Z,95542.75
2023-05-06T02:15:40.021Z,95546.17
2023-05-06T02:18:11.433Z,95545.04
2023-05-06T02:20:39.546Z,95545.66
2023-05-06T02:23:07.984Z,95545.50
2023-05-06T02:25:35.934Z,95548.55
2023-05-06T02:28:04.030Z,95549.89
2023-05-06T02:30:32.437Z,95552.05
2023-05-06T02:33:00.382Z,95549.66
2023-05-06T02:35:28.604Z,95549.68
2023-05-06T02:37:56.793Z,95549.11
2023-05-06T02:40:24.722Z,95547.92
2023-05-06T02:42:53.633Z,95549.70
2023-05-06T02:45:21.737Z,95551.17
2023-05-06T02:47:49.888Z,95550.40
2023-05-06T02:50:18.236Z,95548.39
2023-05-06T02:52:46.282Z,95546.56
2023-05-06T02:55:14.520Z,95550.89
2023-05-06T02:57:42.388Z,95552.84
2023-05-06T03:00:14.008Z,95555.86
2023-05-06T03:02:41.960Z,95554.61
2023-05-06T03:05:10.423Z,95556.77
2023-05-06T03:07:38.653Z,95551.20
2023-05-06T03:10:07.415Z,95555.75
2023-05-06T03:12:37.276Z,95550.54
2023-05-06T03:15:06.060Z,95550.26
2023-05-06T03:17:34.333Z,95555.56
2023-05-06T03:20:03.066Z,95560.98
2023-05-06T03:22:31.972Z,95563.40
2023-05-06T03:24:59.909Z,95564.21
2023-05-06T03:27:28.225Z,95567.67
2023-05-06T03:29:58.954Z,95568.67
2023-05-06T03:32:27.121Z,95572.02
2023-05-06T03:34:55.685Z,95570.98
2023-05-06T03:37:24.034Z,95573.02
2023-05-06T03:39:54.892Z,95578.16
2023-05-06T03:42:25.356Z,95580.16
2023-05-06T03:44:53.730Z,95578.66
2023-05-06T03:47:21.909Z,95577.86
2023-05-06T03:49:50.096Z,95579.41
2023-05-06T03:52:18.561Z,95581.85
2023-05-06T03:54:46.627Z,95584.40
2023-05-06T03:57:14.619Z,95586.00
2023-05-06T03:59:42.590Z,95585.66
2023-05-06T04:02:10.923Z,95585.77
2023-05-06T04:04:39.349Z,95582.49
2023-05-06T04:07:07.265Z,95580.42
2023-05-06T04:09:35.286Z,95581.52
2023-05-06T04:12:06.182Z,95580.53
2023-05-06T04:14:35.390Z,95582.50
2023-05-06T04:17:03.959Z,95584.14
2023-05-06T04:19:32.262Z,95583.08
2023-05-06T04:22:00.284Z,95587.15
2023-05-06T04:24:31.645Z,95587.84
2023-05-06T04:27:00.182Z,95590.73
2023-05-06T04:29:28.951Z,95589.28
2023-05-06T04:32:00.380Z,95586.77
2023-05-06T04:34:29.196Z,95582.20
2023-05-06T04:36:58.609Z,95578.92
2023-05-06T04:39:54.559Z,95578.66
2023-05-06T04:42:23.180Z,95575.95
2023-05-06T04:44:56.440Z,95573.55
2023-05-06T04:47:27.074Z,95573.30
2023-05-06T04:49:56.184Z,95574.09
2023-05-06T04:52:24.565Z,95575.48
2023-05-06T04:54:52.659Z,95573.61
2023-05-06T04:57:20.616Z,95571.67
2023-05-06T04:59:48.617Z,95571.56
2023-05-06T05:02:16.633Z,95565.41
2023-05-06T05:04:44.865Z,95563.52
2023-05-06T05:07:12.756Z,95562.76
2023-05-06T05:09:41.032Z,95562.14
2023-05-06T05:12:09.258Z,95559.30
2023-05-06T05:14:39.505Z,95556.15
2023-05-06T05:17:08.742Z,95558.21
2023-05-06T05:19:38.306Z,95554.55
2023-05-06T05:22:07.428Z,95552.70
2023-05-06T05:24:35.546Z,95550.90
2023-05-06T05:27:03.841Z,95550.22
2023-05-06T05:29:31.912Z,95550.13
2023-05-06T05:32:00.219Z,95551.59
2023-05-06T05:34:28.263Z,95546.90
2023-05-06T05:36:59.557Z,95550.57
2023-05-06T05:39:27.471Z,95546.15
2023-05-06T05:41:55.404Z,95543.89
2023-05-06T05:44:23.734Z,95545.16
2023-05-06T05:46:52.654Z,95545.48
2023-05-06T05:49:21.112Z,95546.13
2023-05-06T05:51:50.350Z,95543.52
2023-05-06T05:54:18.866Z,95542.66
2023-05-06T05:56:47.278Z,95545.98
2023-05-06T05:59:15.520Z,95547.28
2023-05-06T06:01:43.750Z,95548.06
2023-05-06T06:04:12.040Z,95548.55
2023-05-06T06:06:40.093Z,95550.92
2023-05-06T06:09:09.127Z,95552.95
2023-05-06T06:11:38.007Z,95552.67
2023-05-06T06:14:07.055Z,95547.71
2023-05-06T06:16:36.998Z,95550.73
2023-05-06T06:19:05.301Z,95551.11
2023-05-06T06:21:33.363Z,95552.20
2023-05-06T06:24:02.021Z,95546.83
2023-05-06T06:26:31.383Z,95550.17
2023-05-06T06:29:00.646Z,95553.56
2023-05-06T06:31:29.506Z,95559.84
2023-05-06T06:33:57.694Z,95559.73
2023-05-06T06:36:25.916Z,95558.66
2023-05-06T06:38:53.872Z,95561.27
2023-05-06T06:41:21.836Z,95559.31
2023-05-06T06:43:49.894Z,95561.80
2023-05-06T06:46:17.956Z,95558.13
2023-05-06T06:48:46.043Z,95559.06
2023-05-06T06:51:14.131Z,95563.91
2023-05-06T06:53:43.000Z,95561.86
2023-05-06T06:56:14.926Z,95557.98
2023-05-06T06:58:43.023Z,95556.08
2023-05-06T07:01:11.098Z,95558.55
2023-05-06T07:03:39.167Z,95559.58
2023-05-06T07:06:07.225Z,95556.73
2023-05-06T07:08:35.244Z,95558.24
2023-05-06T07:11:03.194Z,95557.36
2023-05-06T07:13:31.396Z,95553.36
2023-05-06T07:15:59.528Z,95553.88
2023-05-06T07:18:29.459Z,95555.05
2023-05-06T07:20:57.567Z,95553.38
2023-05-06T07:23:25.563Z,95554.16
2023-05-06T07:25:53.755Z,95548.79
2023-05-06T07:28:21.917Z,95550.08
2023-05-06T07:30:51.606Z,95549.81
2023-05-06T07:33:19.526Z,95550.84
2023-05-06T07:35:47.562Z,95549.22
2023-05-06T07:38:15.560Z,95550.61
2023-05-06T07:40:43.495Z,95549.58
2023-05-06T07:43:11.474Z,95552.10
2023-05-06T07:45:39.494Z,95557.27
2023-05-06T07:48:07.807Z,95553.75
2023-05-06T07:50:35.860Z,95553.77
2023-05-06T07:53:04.206Z,95551.23
2023-05-06T07:55:33.899Z,95554.27
2023-05-06T07:58:03.271Z,95555.66
2023-05-06T08:00:31.209Z,95557.51
2023-05-06T08:02:59.253Z,95557.26
2023-05-06T08:05:27.181Z,95555.62
2023-05-06T08:07:55.882Z,95555.96
2023-05-06T08:10:24.078Z,95548.73
2023-05-06T08:12:52.442Z,95548.98
2023-05-06T08:15:20.406Z,95551.15
2023-05-06T08:17:48.571Z,95550.89
2023-05-06T08:20:16.562Z,95553.48
2023-05-06T08:22:44.448Z,95550.40
2023-05-06T08:25:12.867Z,95556.91
2023-05-06T08:27:41.119Z,95554.79
2023-05-06T08:30:09.950Z,95551.77
2023-05-06T08:32:38.975Z,95553.83
2023-05-06T08:35:07.210Z,95552.02
2023-05-06T08:37:35.138Z,95551.30
2023-05-06T08:40:05.315Z,95555.48
2023-05-06T08:42:34.583Z,95551.65
2023-05-06T08:45:02.551Z,95552.95
2023-05-06T08:47:30.610Z,95550.77
2023-05-06T08:49:58.569Z,95548.60
2023-05-06T08:52:26.566Z,95550.56
2023-05-06T08:55:01.458Z,95547.10
2023-05-06T08:57:30.893Z,95547.61
2023-05-06T08:59:59.092Z,95543.90
2023-05-06T09:02:27.660Z,95548.34
2023-05-06T09:04:56.964Z,95545.95
2023-05-06T09:07:25.679Z,95541.48
2023-05-06T09:09:53.636Z,95544.04
2023-05-06T09:12:21.549Z,95542.80
2023-05-06T09:14:50.155Z,95539.70
2023-05-06T09:17:26.810Z,95537.09
2023-05-06T09:19:59.324Z,95529.97
2023-05-06T09:22:28.740Z,95529.73
2023-05-06T09:24:57.335Z,95533.80
2023-05-06T09:27:32.694Z,95535.02
2023-05-06T09:30:07.570Z,95534.15
2023-05-06T09:32:38.144Z,95534.13
2023-05-06T09:35:08.745Z,95529.04
2023-05-06T09:37:36.928Z,95530.19
2023-05-06T09:40:05.183Z,95520.20
2023-05-06T09:42:33.304Z,95517.63
2023-05-06T09:45:03.584Z,95519.13
2023-05-06T09:47:37.673Z,95516.04
2023-05-06T09:50:06.207Z,95522.34
2023-05-06T09:52:34.083Z,95521.90
2023-05-06T09:55:03.636Z,95521.90
2023-05-06T09:57:32.573Z,95520.15
2023-05-06T10:00:02.383Z,95515.41
2023-05-06T10:02:41.436Z,95514.55
2023-05-06T10:05:10.707Z,95512.10
2023-05-06T10:07:39.536Z,95508.89
2023-05-06T10:10:09.331Z,95506.84
2023-05-06T10:12:37.575Z,95503.46
2023-05-06T10:15:05.918Z,95504.73
2023-05-06T10:17:34.674Z,95497.77
2023-05-06T10:20:04.874Z,95493.45
2023-05-06T10:22:42.040Z,95493.92
2023-05-06T10:25:11.068Z,95490.50
2023-05-06T10:27:42.056Z,95485.95
2023-05-06T10:30:10.901Z,95488.36
2023-05-06T10:32:42.070Z,95487.61
2023-05-06T10:35:30.564Z,95487.80
2023-05-06T10:37:59.939Z,95486.29
2023-05-06T10:40:28.254Z,95486.63
2023-05-06T10:43:15.248Z,95483.95
2023-05-06T10:46:03.339Z,95485.05
2023-05-06T10:48:31.569Z,95478.48
2023-05-06T10:51:18.625Z,95472.05
2023-05-06T10:54:07.120Z,95478.46
2023-05-06T10:56:36.506Z,95477.32
2023-05-06T10:59:08.543Z,95476.98
2023-05-06T11:01:37.165Z,95474.57
2023-05-06T11:04:15.732Z,95473.23
2023-05-06T11:06:48.139Z,95470.34
2023-05-06T11:09:16.896Z,95473.73
2023-05-06T11:11:52.479Z,95470.46
2023-05-06T11:14:29.463Z,95472.43
2023-05-06T11:16:58.805Z,95468.23
2023-05-06T11:19:27.257Z,95468.58
2023-05-06T11:21:57.532Z,95468.16
2023-05-06T11:24:26.979Z,95462.38
2023-05-06T11:26:55.978Z,95464.85
2023-05-06T11:29:24.839Z,95457.88
2023-05-06T11:31:54.289Z,95457.23
2023-05-06T11:34:24.023Z,95451.27
2023-05-06T11:36:53.355Z,95450.05
2023-05-06T11:39:21.458Z,95452.21
2023-05-06T11:41:49.529Z,95449.29
2023-05-06T11:44:24.683Z,95453.44
2023-05-06T11:46:52.924Z,95452.47
2023-05-06T11:49:21.079Z,95449.50
2023-05-06T11:51:49.825Z,95449.18
2023-05-06T11:54:20.474Z,95449.85
2023-05-06T11:56:56.787Z,95451.34
2023-05-06T11:59:32.044Z,95454.16
2023-05-06T12:02:01.457Z,95454.46
2023-05-06T12:04:37.140Z,95453.53
2023-05-06T12:07:06.378Z,95455.55
2023-05-06T12:09:36.173Z,95455.02
2023-05-06T12:12:05.012Z,95452.89
2023-05-06T12:14:33.209Z,95453.42
2023-05-06T12:17:01.247Z,95454.38
2023-05-06T12:19:29.505Z,95456.06
2023-05-06T12:22:14.177Z,95453.11
2023-05-06T12:24:42.066Z,95452.48
2023-05-06T12:27:09.955Z,95452.25
2023-05-06T12:29:37.943Z,95452.24
2023-05-06T12:32:10.300Z,95454.36
2023-05-06T12:34:39.515Z,95457.52
2023-05-06T12:37:08.789Z,95455.28
2023-05-06T12:39:37.792Z,95457.05
2023-05-06T12:42:06.516Z,95455.36
2023-05-06T12:44:38.558Z,95458.08
2023-05-06T12:47:18.358Z,95454.43
2023-05-06T12:49:53.921Z,95452.56
2023-05-06T12:52:23.259Z,95454.43
2023-05-06T12:54:52.937Z,95448.89
2023-05-06T12:57:21.639Z,95449.34
2023-05-06T12:59:50.225Z,95450.65
2023-05-06T13:02:18.826Z,95452.02
2023-05-06T13:04:47.155Z,95453.80
2023-05-06T13:07:15.696Z,95450.27
2023-05-06T13:09:44.644Z,95451.45
2023-05-06T13:12:13.183Z,95452.27
2023-05-06T13:14:41.177Z,95452.52
2023-05-06T13:17:09.363Z,95447.83
2023-05-06T13:19:37.808Z,95447.23
2023-05-06T13:22:05.838Z,95446.48
2023-05-06T13:24:33.905Z,95449.52
2023-05-06T13:27:02.336Z,95446.69
2023-05-06T13:29:30.546Z,95441.40
2023-05-06T13:31:58.515Z,95437.83
2023-05-06T13:34:27.042Z,95433.80
2023-05-06T13:36:56.882Z,95434.10
2023-05-06T13:39:25.313Z,95434.73
2023-05-06T13:41:54.321Z,95431.67
2023-05-06T13:44:22.623Z,95434.45
2023-05-06T13:46:50.918Z,95434.06
2023-05-06T13:49:19.405Z,95433.70
2023-05-06T13:51:47.411Z,95429.09
2023-05-06T13:54:15.613Z,95425.20
2023-05-06T13:56:43.598Z,95421.60
2023-05-06T13:59:13.508Z,95422.65
2023-05-06T14:01:42.360Z,95422.12
2023-05-06T14:04:10.455Z,95419.22
2023-05-06T14:06:38.997Z,95418.88
2023-05-06T14:09:07.425Z,95411.83
2023-05-06T14:11:35.445Z,95413.17
2023-05-06T14:14:03.456Z,95416.23
2023-05-06T14:16:31.520Z,95415.02
2023-05-06T14:18:59.597Z,95415.14
2023-05-06T14:21:27.434Z,95412.58
2023-05-06T14:23:55.927Z,95410.30
2023-05-06T14:26:23.918Z,95409.31
2023-05-06T14:28:51.852Z,95409.17
2023-05-06T14:31:19.906Z,95408.98
2023-05-06T14:33:47.779Z,95413.17
2023-05-06T14:36:19.801Z,95409.21
2023-05-06T14:38:47.728Z,95410.63
2023-05-06T14:41:15.708Z,95409.70
2023-05-06T14:43:43.683Z,95405.66
2023-05-06T14:46:11.960Z,95405.43
2023-05-06T14:48:40.020Z,95404.18
2023-05-06T14:51:07.974Z,95404.30
2023-05-06T14:53:35.980Z,95399.34
2023-05-06T14:56:04.034Z,95398.77
2023-05-06T14:58:32.011Z,95398.73
2023-05-06T15:01:00.002Z,95395.52
2023-05-06T15:03:27.967Z,95392.96
2023-05-06T15:05:56.118Z,95393.02
2023-05-06T15:08:24.139Z,95391.73
2023-05-06T15:10:52.096Z,95391.27
2023-05-06T15:13:19.981Z,95389.53
2023-05-06T15:15:47.982Z,95387.77
2023-05-06T15:18:16.464Z,95382.28
2023-05-06T15:20:44.424Z,95387.42
2023-05-06T15:23:12.362Z,95390.57
2023-05-06T15:25:40.519Z,95389.71
2023-05-06T15:28:08.803Z,95390.36
2023-05-06T15:30:37.397Z,95389.23
2023-05-06T15:33:05.714Z,95389.89
2023-05-06T15:35:33.645Z,95392.70
2023-05-06T15:38:03.308Z,95392.57
2023-05-06T15:40:31.248Z,95392.20
2023-05-06T15:42:59.516Z,95392.63
2023-05-06T15:45:27.764Z,95390.02
2023-05-06T15:47:56.326Z,95393.15
2023-05-06T15:50:32.988Z,95392.62
2023-05-06T15:53:02.612Z,95393.48
2023-05-06T15:55:35.055Z,95390.22
2023-05-06T15:58:04.711Z,95384.38
2023-05-06T16:00:32.961Z,95387.15
2023-05-06T16:03:01.151Z,95380.24
2023-05-06T16:05:29.333Z,95380.66
2023-05-06T16:07:57.421Z,95376.98
2023-05-06T16:10:26.019Z,95379.08
2023-05-06T16:12:54.105Z,95372.84
2023-05-06T16:15:21.982Z,95372.98
2023-05-06T16:17:49.876Z,95374.17
2023-05-06T16:20:17.955Z,95372.33
2023-05-06T16:22:52.815Z,95370.43
2023-05-06T16:25:20.724Z,95370.55
2023-05-06T16:27:48.994Z,95372.52
2023-05-06T16:30:17.180Z,95364.16
2023-05-06T16:32:45.178Z,95362.61
2023-05-06T16:35:13.150Z,95363.61
2023-05-06T16:37:41.278Z,95366.77
2023-05-06T16:40:09.775Z,95374.09
2023-05-06T16:42:37.914Z,95386.73
2023-05-06T16:45:06.780Z,95396.16
2023-05-06T16:47:34.985Z,95404.73
2023-05-06T16:50:04.008Z,95415.46
2023-05-06T16:52:31.924Z,95418.13
2023-05-06T16:54:59.930Z,95418.69
2023-05-06T16:57:27.933Z,95414.00
2023-05-06T16:59:55.987Z,95418.54
2023-05-06T17:02:24.141Z,95417.44
2023-05-06T17:04:52.151Z,95421.41
2023-05-06T17:07:20.155Z,95421.54
2023-05-06T17:09:48.050Z,95424.33
2023-05-06T17:12:16.400Z,95422.67
2023-05-06T17:14:44.481Z,95429.55
2023-05-06T17:17:12.456Z,95431.80
2023-05-06T17:19:40.347Z,95433.33
2023-05-06T17:22:08.307Z,95436.90
2023-05-06T17:24:36.251Z,95440.63
2023-05-06T17:27:04.318Z,95436.41
2023-05-06T17:29:32.341Z,95433.00
2023-05-06T17:32:00.333Z,95428.41
2023-05-06T17:34:28.297Z,95425.61
2023-05-06T17:36:56.417Z,95430.10
2023-05-06T17:39:24.337Z,95442.97
2023-05-06T17:41:52.895Z,95439.84
2023-05-06T17:44:20.867Z,95436.63
2023-05-06T17:46:48.836Z,95440.41
2023-05-06T17:49:16.824Z,95445.04
2023-05-06T17:51:46.367Z,95449.04
2023-05-06T17:54:14.359Z,95452.15
2023-05-06T17:56:42.355Z,95454.61
2023-05-06T17:59:11.457Z,95457.98
2023-05-06T18:01:39.850Z,95462.55
2023-05-06T18:04:07.883Z,95465.15
2023-05-06T18:06:36.310Z,95466.27
2023-05-06T18:09:04.345Z,95472.96
2023-05-06T18:11:32.360Z,95475.45
2023-05-06T18:14:00.575Z,95474.61
2023-05-06T18:16:28.560Z,95474.79
2023-05-06T18:18:56.550Z,95480.35
2023-05-06T18:21:24.591Z,95481.98
2023-05-06T18:23:58.727Z,95481.80
2023-05-06T18:26:44.815Z,95487.03
2023-05-06T18:29:13.657Z,95491.02
2023-05-06T18:31:41.991Z,95489.77
2023-05-06T18:34:10.062Z,95498.53
2023-05-06T18:36:38.029Z,95502.61
2023-05-06T18:39:07.122Z,95504.15
2023-05-06T18:41:35.305Z,95509.61
2023-05-06T18:44:04.497Z,95513.41
2023-05-06T18:46:32.903Z,95512.20
2023-05-06T18:49:01.107Z,95513.40
2023-05-06T18:51:29.026Z,95512.55
2023-05-06T18:53:56.953Z,95515.02
2023-05-06T18:56:24.872Z,95512.91
2023-05-06T18:58:52.894Z,95512.76
2023-05-06T19:01:21.243Z,95510.61
2023-05-06T19:03:49.271Z,95507.16
2023-05-06T19:06:17.589Z,95506.11
2023-05-06T19:08:45.545Z,95503.95
2023-05-06T19:11:18.203Z,95499.41
2023-05-06T19:13:46.467Z,95497.04
2023-05-06T19:16:14.853Z,95493.77
2023-05-06T19:18:43.106Z,95495.30
2023-05-06T19:21:15.078Z,95494.88
2023-05-06T19:23:43.067Z,95492.50
2023-05-06T19:26:12.081Z,95494.04
2023-05-06T19:28:40.597Z,95495.25
2023-05-06T19:31:12.148Z,95496.09
2023-05-06T19:33:41.015Z,95496.56
2023-05-06T19:36:09.489Z,95498.30
2023-05-06T19:38:37.796Z,95499.08
2023-05-06T19:41:06.264Z,95498.44
2023-05-06T19:43:34.261Z,95502.06
2023-05-06T19:46:02.343Z,95505.74
2023-05-06T19:48:30.455Z,95506.41
2023-05-06T19:50:58.578Z,95507.13
2023-05-06T19:53:26.581Z,95504.80
2023-05-06T19:55:59.354Z,95504.63
2023-05-06T19:58:27.273Z,95498.30
2023-05-06T20:00:55.168Z,95501.51
2023-05-06T20:03:23.148Z,95499.73
2023-05-06T20:05:51.340Z,95499.41
2023-05-06T20:08:19.383Z,95503.91
2023-05-06T20:10:48.348Z,95504.02
2023-05-06T20:13:17.980Z,95505.81
2023-05-06T20:15:46.073Z,95507.92
2023-05-06T20:18:14.564Z,95500.08
2023-05-06T20:20:43.365Z,95504.23
2023-05-06T20:23:11.354Z,95502.89
2023-05-06T20:25:39.364Z,95499.20
2023-05-06T20:28:07.658Z,95497.03
2023-05-06T20:30:35.717Z,95492.40
2023-05-06T20:33:04.008Z,95493.40
2023-05-06T20:35:38.127Z,95496.35
2023-05-06T20:38:06.822Z,95487.77
2023-05-06T20:40:35.972Z,95488.15
2023-05-06T20:43:04.111Z,95479.55
2023-05-06T20:45:32.174Z,95480.34
2023-05-06T20:48:00.391Z,95478.92
2023-05-06T20:50:30.051Z,95478.23
2023-05-06T20:52:59.050Z,95476.97
2023-05-06T20:55:27.090Z,95472.55
2023-05-06T20:57:55.019Z,95471.98
2023-05-06T21:00:22.967Z,95471.83
2023-05-06T21:02:51.003Z,95465.13
2023-05-06T21:05:19.107Z,95462.23
2023-05-06T21:07:47.115Z,95461.85
2023-05-06T21:10:15.101Z,95459.71
2023-05-06T21:12:49.826Z,95459.42
2023-05-06T21:15:18.090Z,95461.55
2023-05-06T21:17:46.518Z,95458.33
2023-05-06T21:20:14.543Z,95456.75
2023-05-06T21:22:42.445Z,95457.96
2023-05-06T21:25:13.253Z,95461.61
2023-05-06T21:27:41.476Z,95467.30
2023-05-06T21:30:09.707Z,95470.37
2023-05-06T21:32:37.985Z,95471.41
2023-05-06T21:35:06.219Z,95466.88
2023-05-06T21:37:35.738Z,95468.36
2023-05-06T21:40:04.678Z,95472.56
2023-05-06T21:42:32.550Z,95474.73
2023-05-06T21:45:00.999Z,95474.95
2023-05-06T21:47:28.942Z,95476.52
2023-05-06T21:49:56.992Z,95478.68
2023-05-06T21:52:24.994Z,95478.52
2023-05-06T21:54:52.928Z,95476.46
2023-05-06T21:57:20.819Z,95479.55
2023-05-06T21:59:48.757Z,95474.87
2023-05-06T22:02:16.824Z,95477.34
2023-05-06T22:04:44.837Z,95477.86
2023-05-06T22:07:12.706Z,95478.23
2023-05-06T22:09:40.674Z,95474.15
2023-05-06T22:12:11.633Z,95476.23
2023-05-06T22:14:41.626Z,95473.58
2023-05-06T22:17:10.742Z,95473.59
2023-05-06T22:19:39.038Z,95475.35
2023-05-06T22:22:07.341Z,95473.75
2023-05-06T22:24:35.418Z,95473.64
2023-05-06T22:27:03.382Z,95471.61
2023-05-06T22:29:31.466Z,95467.25
2023-05-06T22:31:59.493Z,95468.22
2023-05-06T22:34:27.520Z,95466.83
2023-05-06T22:36:57.617Z,95465.18
2023-05-06T22:39:26.632Z,95466.11
2023-05-06T22:41:54.503Z,95459.42
2023-05-06T22:44:22.395Z,95458.42
2023-05-06T22:46:50.555Z,95454.65
2023-05-06T22:49:19.537Z,95453.81
2023-05-06T22:51:47.567Z,95458.17
2023-05-06T22:54:15.605Z,95454.32
2023-05-06T22:56:43.584Z,95454.80
2023-05-06T22:59:11.525Z,95446.77
2023-05-06T23:01:39.558Z,95445.15
2023-05-06T23:04:07.551Z,95442.57
2023-05-06T23:06:35.856Z,95444.17
2023-05-06T23:09:03.979Z,95445.13
2023-05-06T23:11:31.994Z,95442.70
2023-05-06T23:13:59.897Z,95439.07
2023-05-06T23:16:29.762Z,95439.65
2023-05-06T23:18:58.146Z,95437.90
2023-05-06T23:21:26.914Z,95437.81
2023-05-06T23:23:55.465Z,95439.33
2023-05-06T23:26:24.105Z,95438.59
2023-05-06T23:28:52.352Z,95439.70
2023-05-06T23:33:48.419Z,95441.00
2023-05-06T23:36:16.245Z,95442.88
2023-05-06T23:38:44.225Z,95440.23
2023-05-06T23:41:12.317Z,95441.02
2023-05-06T23:43:40.257Z,95440.47
2023-05-06T23:46:08.250Z,95437.09
2023-05-06T23:48:37.581Z,95433.58
2023-05-06T23:51:05.628Z,95432.30
2023-05-06T23:53:33.510Z,95429.94
2023-05-06T23:56:01.859Z,95422.98
2023-05-06T23:58:29.886Z,95421.13
